createdAt,value
2022-08-03T00:00:26.166Z,15.50
2022-08-03T00:02:52.804Z,16.35
2022-08-03T00:05:19.412Z,17.65
2022-08-03T00:07:45.941Z,17.33
2022-08-03T00:10:15.218Z,15.35
2022-08-03T00:12:41.763Z,15.27
2022-08-03T00:15:11.102Z,16.15
2022-08-03T00:17:52.423Z,15.13
2022-08-03T00:20:23.249Z,15.20
2022-08-03T00:22:50.368Z,14.85
2022-08-03T00:25:17.614Z,16.63
2022-08-03T00:27:44.167Z,15.13
2022-08-03T00:30:11.029Z,15.20
2022-08-03T00:32:42.174Z,16.73
2022-08-03T00:35:18.236Z,15.40
2022-08-03T00:37:59.685Z,15.10
2022-08-03T00:40:26.658Z,16.67
2022-08-03T00:42:58.048Z,16.35
2022-08-03T00:45:33.264Z,14.27
2022-08-03T00:48:00.277Z,16.50
2022-08-03T00:50:28.857Z,16.38
2022-08-03T00:52:58.063Z,17.15
2022-08-03T00:55:25.764Z,15.63
2022-08-03T00:57:52.632Z,16.42
2022-08-03T01:00:23.423Z,15.63
2022-08-03T01:02:50.502Z,13.93
2022-08-03T01:05:17.860Z,13.00
2022-08-03T01:08:11.927Z,13.20
2022-08-03T01:10:50.319Z,14.10
2022-08-03T01:14:03.929Z,13.25
2022-08-03T01:16:36.576Z,14.15
2022-08-03T01:19:28.406Z,13.20
2022-08-03T01:22:16.356Z,13.40
2022-08-03T01:25:28.088Z,13.80
2022-08-03T01:28:12.770Z,13.32
2022-08-03T01:30:43.698Z,13.48
2022-08-03T01:33:17.853Z,12.57
2022-08-03T01:35:54.346Z,11.85
2022-08-03T01:38:34.397Z,14.43
2022-08-03T01:41:07.369Z,12.45
2022-08-03T01:44:27.264Z,13.40
2022-08-03T01:46:25.705Z,12.52
2022-08-03T01:48:54.877Z,13.60
2022-08-03T01:51:22.636Z,13.13
2022-08-03T01:53:51.540Z,11.15
2022-08-03T01:56:20.298Z,14.80
2022-08-03T01:58:49.178Z,12.23
2022-08-03T02:01:17.123Z,11.85
2022-08-03T02:03:59.982Z,11.75
2022-08-03T02:06:59.763Z,12.20
2022-08-03T02:09:20.570Z,13.02
2022-08-03T02:11:49.001Z,12.52
2022-08-03T02:14:16.627Z,11.57
2022-08-03T02:16:45.928Z,12.02
2022-08-03T02:19:13.803Z,12.73
2022-08-03T02:21:57.387Z,13.52
2022-08-03T02:24:28.867Z,16.23
2022-08-03T02:26:57.552Z,13.48
2022-08-03T02:29:40.285Z,13.68
2022-08-03T02:32:12.379Z,12.88
2022-08-03T02:34:42.198Z,12.68
2022-08-03T02:37:11.914Z,12.93
2022-08-03T02:39:41.015Z,31.47
2022-08-03T02:42:13.504Z,12.77
2022-08-03T02:44:41.569Z,14.35
2022-08-03T02:47:10.870Z,13.65
2022-08-03T02:49:50.527Z,12.57
2022-08-03T02:52:20.708Z,13.65
2022-08-03T02:54:51.141Z,13.70
2022-08-03T02:59:47.129Z,14.02
2022-08-03T03:02:16.022Z,15.00
2022-08-03T03:05:52.409Z,14.32
2022-08-03T03:07:35.350Z,14.93
2022-08-03T03:10:18.967Z,14.55
2022-08-03T03:12:46.808Z,15.13
2022-08-03T03:15:13.342Z,14.98
2022-08-03T03:17:41.316Z,15.70
2022-08-03T03:20:08.900Z,14.35
2022-08-03T03:22:36.133Z,14.45
2022-08-03T03:25:02.996Z,15.25
2022-08-03T03:27:30.515Z,15.05
2022-08-03T03:29:59.061Z,13.30
2022-08-03T03:32:28.004Z,13.63
2022-08-03T03:34:55.932Z,15.02
2022-08-03T03:37:22.477Z,15.27
2022-08-03T03:39:48.952Z,15.23
2022-08-03T03:42:15.590Z,14.63
2022-08-03T03:44:42.338Z,15.18
2022-08-03T03:47:08.928Z,16.27
2022-08-03T03:49:36.383Z,15.32
2022-08-03T03:52:02.972Z,15.43
2022-08-03T03:54:43.300Z,14.68
2022-08-03T03:57:13.105Z,15.80
2022-08-03T03:59:43.736Z,18.70
2022-08-03T04:02:11.550Z,16.90
2022-08-03T04:04:57.957Z,20.67
2022-08-03T04:07:45.058Z,16.40
2022-08-03T04:10:41.794Z,20.80
2022-08-03T04:13:10.926Z,19.83
2022-08-03T04:15:39.957Z,19.00
2022-08-03T04:18:09.769Z,19.13
2022-08-03T04:20:38.791Z,19.43
2022-08-03T04:23:13.604Z,19.83
2022-08-03T04:25:44.390Z,21.73
2022-08-03T04:28:30.652Z,20.13
2022-08-03T04:30:59.755Z,19.27
2022-08-03T04:33:29.631Z,20.20
2022-08-03T04:38:31.687Z,20.83
2022-08-03T04:41:00.456Z,20.90
2022-08-03T04:43:28.494Z,20.10
2022-08-03T04:45:55.859Z,21.02
2022-08-03T04:48:22.824Z,19.23
2022-08-03T04:50:49.389Z,20.08
2022-08-03T04:53:16.501Z,20.65
2022-08-03T04:55:43.103Z,18.80
2022-08-03T04:58:09.593Z,18.63
2022-08-03T05:00:36.213Z,19.42
2022-08-03T05:03:02.794Z,18.88
2022-08-03T05:05:34.621Z,17.95
2022-08-03T05:08:15.620Z,16.73
2022-08-03T05:10:42.216Z,15.90
2022-08-03T05:13:12.885Z,18.23
2022-08-03T05:15:42.998Z,16.08
2022-08-03T05:18:13.860Z,16.95
2022-08-03T05:20:40.834Z,15.43
2022-08-03T05:23:07.372Z,16.60
2022-08-03T05:25:33.828Z,14.82
2022-08-03T05:28:00.376Z,14.20
2022-08-03T05:30:33.696Z,16.08
2022-08-03T05:33:02.165Z,13.95
2022-08-03T05:36:01.805Z,16.05
2022-08-03T05:38:23.749Z,14.65
2022-08-03T05:40:56.824Z,13.90
2022-08-03T05:43:24.705Z,13.60
2022-08-03T05:46:11.673Z,14.60
2022-08-03T05:48:37.954Z,15.73
2022-08-03T05:51:07.516Z,15.00
2022-08-03T05:53:34.790Z,13.75
2022-08-03T05:56:03.490Z,13.02
2022-08-03T05:58:41.845Z,12.80
2022-08-03T06:01:08.439Z,13.82
2022-08-03T06:03:34.997Z,13.68
2022-08-03T06:06:01.583Z,11.65
2022-08-03T06:08:28.164Z,8.63
2022-08-03T06:10:54.849Z,8.85
2022-08-03T06:13:22.016Z,9.70
2022-08-03T06:15:48.560Z,9.93
2022-08-03T06:18:15.053Z,12.32
2022-08-03T06:20:41.614Z,11.98
2022-08-03T06:23:08.150Z,12.23
2022-08-03T06:25:43.043Z,10.75
2022-08-03T06:28:15.074Z,10.85
2022-08-03T06:30:50.471Z,11.25
2022-08-03T06:33:17.133Z,11.85
2022-08-03T06:35:45.234Z,10.52
2022-08-03T06:38:12.957Z,11.75
2022-08-03T06:40:42.478Z,11.70
2022-08-03T06:43:12.864Z,11.80
2022-08-03T06:45:42.511Z,13.43
2022-08-03T06:48:11.433Z,13.90
2022-08-03T06:50:39.507Z,10.18
2022-08-03T06:53:06.219Z,12.02
2022-08-03T06:55:33.099Z,13.07
2022-08-03T06:57:59.766Z,12.52
2022-08-03T07:02:58.504Z,8.68
2022-08-03T07:05:25.364Z,10.32
2022-08-03T07:07:55.782Z,10.48
2022-08-03T07:12:55.895Z,10.20
2022-08-03T07:15:55.222Z,8.32
2022-08-03T07:18:10.219Z,9.30
2022-08-03T07:20:36.725Z,7.97
2022-08-03T07:23:03.349Z,6.68
2022-08-03T07:25:29.790Z,7.53
2022-08-03T07:27:56.341Z,7.50
2022-08-03T07:30:23.172Z,6.85
2022-08-03T07:32:50.573Z,7.97
2022-08-03T07:35:24.477Z,6.88
2022-08-03T07:37:54.656Z,5.60
2022-08-03T07:40:22.412Z,3.63
2022-08-03T07:42:52.269Z,4.13
2022-08-03T07:45:21.409Z,3.47
2022-08-03T07:47:53.733Z,5.05
2022-08-03T07:50:20.673Z,3.95
2022-08-03T07:52:50.373Z,4.63
2022-08-03T07:55:19.476Z,4.35
2022-08-03T07:57:46.263Z,3.58
2022-08-03T08:00:19.151Z,4.03
2022-08-03T08:02:46.016Z,4.60
2022-08-03T08:05:13.044Z,3.55
2022-08-03T08:07:40.224Z,3.85
2022-08-03T08:10:10.025Z,4.28
2022-08-03T08:12:38.830Z,3.75
2022-08-03T08:15:07.161Z,3.55
2022-08-03T08:17:49.256Z,3.95
2022-08-03T08:20:28.651Z,3.15
2022-08-03T08:23:03.561Z,3.47
2022-08-03T08:25:37.459Z,3.13
2022-08-03T08:28:29.062Z,2.80
2022-08-03T08:30:51.063Z,3.53
2022-08-03T08:33:22.768Z,2.97
2022-08-03T08:35:51.885Z,3.67
2022-08-03T08:38:18.362Z,3.20
2022-08-03T08:40:45.117Z,2.80
2022-08-03T08:43:11.660Z,3.83
2022-08-03T08:45:38.650Z,4.00
2022-08-03T08:48:08.447Z,3.28
2022-08-03T08:50:37.295Z,3.97
2022-08-03T08:53:07.104Z,3.92
2022-08-03T08:55:58.940Z,4.78
2022-08-03T08:58:24.473Z,5.40
2022-08-03T09:00:51.554Z,3.83
2022-08-03T09:03:29.362Z,3.50
2022-08-03T09:05:58.981Z,5.30
2022-08-03T09:08:25.986Z,4.90
2022-08-03T09:10:52.686Z,3.88
2022-08-03T09:13:19.351Z,4.32
2022-08-03T09:15:59.830Z,4.03
2022-08-03T09:18:32.313Z,5.13
2022-08-03T09:21:36.010Z,4.75
2022-08-03T09:24:06.185Z,3.88
2022-08-03T09:26:37.111Z,4.50
2022-08-03T09:29:14.943Z,4.18
2022-08-03T09:31:44.669Z,3.90
2022-08-03T09:34:14.213Z,3.70
2022-08-03T09:36:46.229Z,2.92
2022-08-03T09:39:15.278Z,3.22
2022-08-03T09:41:47.526Z,4.15
2022-08-03T09:44:24.986Z,2.83
2022-08-03T09:46:56.108Z,3.22
2022-08-03T09:52:33.019Z,4.70
2022-08-03T09:54:36.590Z,3.75
2022-08-03T09:57:03.211Z,3.78
2022-08-03T09:59:31.231Z,3.28
2022-08-03T10:01:59.756Z,3.33
2022-08-03T10:04:26.732Z,2.83
2022-08-03T10:07:10.062Z,2.97
2022-08-03T10:09:37.598Z,2.97
2022-08-03T10:12:09.162Z,2.78
2022-08-03T10:14:38.258Z,2.38
2022-08-03T10:17:04.839Z,2.60
2022-08-03T10:19:31.340Z,2.30
2022-08-03T10:22:03.296Z,2.40
2022-08-03T10:24:34.605Z,2.15
2022-08-03T10:27:08.171Z,2.70
2022-08-03T10:29:39.668Z,2.50
2022-08-03T10:32:17.478Z,2.55
2022-08-03T10:34:45.057Z,2.45
2022-08-03T10:37:14.341Z,2.33
2022-08-03T10:39:53.467Z,2.67
2022-08-03T10:42:24.887Z,2.30
2022-08-03T10:45:18.102Z,2.03
2022-08-03T10:47:46.560Z,2.13
2022-08-03T10:50:13.322Z,2.58
2022-08-03T10:53:03.890Z,2.80
2022-08-03T10:55:59.338Z,2.47
2022-08-03T10:58:37.213Z,2.13
2022-08-03T11:01:13.526Z,2.83
2022-08-03T11:03:52.250Z,2.22
2022-08-03T11:06:20.737Z,2.28
2022-08-03T11:08:48.845Z,2.97
2022-08-03T11:11:18.413Z,2.30
2022-08-03T11:14:07.582Z,1.48
2022-08-03T11:16:48.481Z,1.95
2022-08-03T11:19:17.813Z,1.85
2022-08-03T11:21:50.643Z,1.88
2022-08-03T11:24:51.270Z,3.00
2022-08-03T11:27:19.806Z,1.80
2022-08-03T11:30:00.573Z,1.77
2022-08-03T11:32:46.565Z,1.80
2022-08-03T11:35:22.520Z,2.30
2022-08-03T11:38:04.381Z,2.00
2022-08-03T11:40:53.547Z,2.40
2022-08-03T11:43:30.661Z,1.77
2022-08-03T11:46:28.154Z,1.50
2022-08-03T11:49:09.856Z,2.25
2022-08-03T11:51:37.855Z,2.30
2022-08-03T11:54:06.540Z,2.20
2022-08-03T11:56:49.972Z,2.40
2022-08-03T11:59:21.681Z,1.73
2022-08-03T12:01:49.462Z,1.88
2022-08-03T12:04:16.354Z,1.90
2022-08-03T12:06:58.609Z,2.90
2022-08-03T12:09:25.111Z,2.10
2022-08-03T12:12:00.552Z,2.35
2022-08-03T12:14:50.665Z,2.45
2022-08-03T12:17:15.964Z,2.20
2022-08-03T12:19:43.840Z,2.40
2022-08-03T12:22:10.394Z,2.20
2022-08-03T12:24:41.994Z,2.50
2022-08-03T12:27:08.508Z,2.05
2022-08-03T12:29:35.173Z,2.15
2022-08-03T12:32:01.758Z,1.70
2022-08-03T12:34:48.363Z,1.70
2022-08-03T12:37:19.280Z,2.28
2022-08-03T12:40:02.982Z,1.90
2022-08-03T12:42:38.845Z,1.77
2022-08-03T12:45:37.825Z,2.03
2022-08-03T12:48:09.203Z,1.95
2022-08-03T12:50:37.609Z,1.52
2022-08-03T12:53:08.898Z,3.17
2022-08-03T12:55:57.183Z,2.10
2022-08-03T12:58:36.976Z,1.98
2022-08-03T13:01:09.197Z,1.75
2022-08-03T13:03:45.785Z,1.92
2022-08-03T13:06:18.922Z,2.00
2022-08-03T13:08:47.930Z,1.52
2022-08-03T13:11:50.667Z,1.77
2022-08-03T13:14:13.486Z,1.67
2022-08-03T13:16:45.802Z,1.95
2022-08-03T13:19:15.544Z,1.98
2022-08-03T13:21:53.739Z,1.42
2022-08-03T13:24:30.507Z,2.08
2022-08-03T13:26:58.153Z,2.30
2022-08-03T13:29:24.735Z,2.65
2022-08-03T13:31:51.646Z,1.45
2022-08-03T13:34:22.965Z,2.10
2022-08-03T13:37:08.328Z,1.70
2022-08-03T13:39:57.545Z,1.50
2022-08-03T13:42:22.791Z,1.83
2022-08-03T13:44:49.448Z,1.77
2022-08-03T13:47:16.157Z,1.50
2022-08-03T13:49:59.475Z,1.42
2022-08-03T13:52:27.546Z,1.60
2022-08-03T13:54:54.089Z,1.65
2022-08-03T13:58:05.728Z,1.42
2022-08-03T14:00:08.035Z,1.40
2022-08-03T14:02:34.542Z,1.38
2022-08-03T14:05:01.050Z,2.00
2022-08-03T14:07:27.540Z,2.00
2022-08-03T14:09:54.041Z,2.10
2022-08-03T14:12:20.503Z,2.20
2022-08-03T14:14:46.987Z,1.83
2022-08-03T14:17:13.478Z,1.92
2022-08-03T14:19:53.218Z,1.75
2022-08-03T14:22:21.496Z,1.35
2022-08-03T14:24:48.081Z,1.55
2022-08-03T14:27:16.291Z,1.52
2022-08-03T14:29:42.745Z,1.35
2022-08-03T14:32:12.883Z,1.33
2022-08-03T14:34:40.383Z,1.27
2022-08-03T14:37:07.120Z,1.95
2022-08-03T14:42:20.447Z,1.30
2022-08-03T14:44:48.000Z,1.98
2022-08-03T14:47:14.767Z,1.35
2022-08-03T14:50:31.915Z,1.77
2022-08-03T14:52:28.249Z,1.40
2022-08-03T14:54:54.754Z,1.50
2022-08-03T14:57:21.561Z,1.35
2022-08-03T14:59:55.561Z,1.67
2022-08-03T15:02:24.545Z,2.13
2022-08-03T15:04:51.540Z,1.13
2022-08-03T15:07:18.482Z,1.70
2022-08-03T15:09:45.092Z,1.40
2022-08-03T15:12:11.641Z,1.45
2022-08-03T15:14:39.088Z,1.17
2022-08-03T15:17:06.173Z,1.55
2022-08-03T15:20:03.518Z,1.13
2022-08-03T15:22:20.673Z,1.27
2022-08-03T15:24:51.305Z,1.52
2022-08-03T15:27:17.905Z,1.67
2022-08-03T15:30:04.916Z,1.40
2022-08-03T15:32:30.966Z,1.30
2022-08-03T15:34:57.438Z,1.35
2022-08-03T15:37:25.605Z,1.67
2022-08-03T15:39:59.345Z,0.82
2022-08-03T15:42:30.592Z,1.42
2022-08-03T15:47:23.609Z,1.08
2022-08-03T15:49:50.062Z,1.17
2022-08-03T15:52:16.594Z,1.00
2022-08-03T15:54:43.137Z,1.65
2022-08-03T15:57:09.807Z,1.30
2022-08-03T15:59:36.616Z,2.20
2022-08-03T16:02:03.766Z,1.55
2022-08-03T16:04:30.259Z,1.60
2022-08-03T16:06:56.742Z,1.00
2022-08-03T16:09:43.113Z,1.17
2022-08-03T16:12:14.548Z,1.33
2022-08-03T16:14:51.804Z,1.65
2022-08-03T16:17:20.355Z,1.20
2022-08-03T16:19:47.029Z,1.70
2022-08-03T16:22:14.550Z,1.23
2022-08-03T16:24:41.271Z,1.02
2022-08-03T16:27:17.338Z,1.25
2022-08-03T16:29:44.188Z,1.20
2022-08-03T16:32:11.098Z,1.30
2022-08-03T16:34:39.232Z,1.08
2022-08-03T16:37:35.355Z,1.30
2022-08-03T16:39:53.479Z,1.23
2022-08-03T16:42:19.953Z,1.23
2022-08-03T16:44:46.470Z,1.08
2022-08-03T16:47:22.239Z,0.95
2022-08-03T16:49:53.890Z,1.13
2022-08-03T16:52:23.697Z,1.48
2022-08-03T16:54:53.693Z,1.67
2022-08-03T16:57:55.787Z,1.30
2022-08-03T17:00:34.222Z,1.70
2022-08-03T17:03:03.881Z,2.05
2022-08-03T17:05:43.712Z,1.30
2022-08-03T17:08:14.614Z,1.48
2022-08-03T17:10:45.154Z,1.10
2022-08-03T17:13:22.004Z,1.45
2022-08-03T17:16:00.873Z,1.42
2022-08-03T17:18:34.064Z,1.23
2022-08-03T17:21:05.742Z,1.15
2022-08-03T17:23:42.233Z,1.45
2022-08-03T17:26:21.079Z,1.50
2022-08-03T17:28:57.663Z,1.27
2022-08-03T17:31:31.740Z,1.42
2022-08-03T17:34:01.837Z,1.50
2022-08-03T17:39:23.535Z,1.42
2022-08-03T17:42:00.709Z,1.08
2022-08-03T17:44:33.157Z,1.27
2022-08-03T17:47:08.625Z,1.40
2022-08-03T17:49:40.058Z,1.10
2022-08-03T17:52:27.880Z,2.20
2022-08-03T17:55:55.587Z,1.67
2022-08-03T17:58:11.521Z,1.30
2022-08-03T18:00:59.696Z,1.55
2022-08-03T18:03:58.357Z,1.35
2022-08-03T18:06:31.626Z,1.30
2022-08-03T18:09:04.708Z,1.48
2022-08-03T18:11:35.710Z,1.95
2022-08-03T18:14:23.855Z,1.30
2022-08-03T18:17:00.853Z,1.33
2022-08-03T18:20:01.352Z,1.90
2022-08-03T18:22:21.915Z,1.73
2022-08-03T18:24:52.649Z,1.50
2022-08-03T18:27:21.233Z,1.50
2022-08-03T18:29:49.510Z,2.33
2022-08-03T18:32:17.231Z,1.90
2022-08-03T18:34:53.433Z,1.75
2022-08-03T18:37:26.021Z,2.22
2022-08-03T18:39:55.674Z,1.48
2022-08-03T18:42:26.499Z,2.22
2022-08-03T18:44:56.223Z,2.13
2022-08-03T18:47:52.091Z,2.13
2022-08-03T18:50:34.065Z,1.90
2022-08-03T18:53:16.442Z,1.40
2022-08-03T18:56:14.544Z,2.72
2022-08-03T18:58:48.064Z,2.67
2022-08-03T19:02:00.611Z,2.45
2022-08-03T19:04:38.749Z,4.10
2022-08-03T19:07:09.446Z,3.58
2022-08-03T19:09:53.041Z,2.70
2022-08-03T19:12:28.083Z,2.63
2022-08-03T19:15:01.450Z,3.33
2022-08-03T19:17:32.575Z,2.75
2022-08-03T19:20:03.189Z,2.60
2022-08-03T19:22:31.543Z,3.20
2022-08-03T19:25:01.327Z,3.15
2022-08-03T19:27:32.103Z,3.50
2022-08-03T19:30:03.894Z,3.13
2022-08-03T19:32:32.602Z,3.97
2022-08-03T19:35:00.760Z,2.40
2022-08-03T19:37:38.094Z,2.72
2022-08-03T19:40:10.711Z,3.40
2022-08-03T19:42:44.479Z,2.17
2022-08-03T19:45:15.177Z,3.05
2022-08-03T19:47:47.465Z,3.17
2022-08-03T19:50:16.365Z,3.15
2022-08-03T19:52:47.289Z,2.95
2022-08-03T19:55:15.783Z,2.97
2022-08-03T19:57:45.999Z,2.72
2022-08-03T20:00:14.015Z,4.28
2022-08-03T20:02:41.340Z,4.13
2022-08-03T20:08:01.411Z,4.38
2022-08-03T20:10:33.483Z,4.13
2022-08-03T20:13:01.751Z,3.40
2022-08-03T20:15:31.603Z,4.60
2022-08-03T20:17:59.179Z,4.38
2022-08-03T20:20:32.557Z,4.50
2022-08-03T20:23:02.112Z,4.07
2022-08-03T20:25:38.613Z,5.05
2022-08-03T20:28:13.962Z,6.10
2022-08-03T20:30:43.375Z,7.32
2022-08-03T20:33:10.074Z,5.47
2022-08-03T20:35:36.787Z,6.70
2022-08-03T20:38:03.507Z,6.35
2022-08-03T20:40:30.043Z,5.47
2022-08-03T20:42:57.292Z,5.55
2022-08-03T20:45:58.225Z,6.45
2022-08-03T20:48:10.587Z,6.72
2022-08-03T20:50:40.543Z,7.85
2022-08-03T20:53:10.008Z,5.43
2022-08-03T20:55:53.878Z,4.40
2022-08-03T20:58:25.662Z,4.57
2022-08-03T21:00:54.378Z,6.65
2022-08-03T21:03:20.883Z,6.13
2022-08-03T21:05:51.864Z,4.40
2022-08-03T21:08:22.367Z,5.72
2022-08-03T21:10:50.081Z,5.10
2022-08-03T21:13:03.419Z,3.53
2022-08-03T21:13:42.882Z,6.43
2022-08-03T21:16:15.061Z,6.18
2022-08-03T21:18:48.427Z,6.40
2022-08-03T21:21:17.561Z,5.78
2022-08-03T21:23:48.371Z,4.85
2022-08-03T21:26:17.172Z,4.85
2022-08-03T21:28:46.781Z,6.10
2022-08-03T21:31:14.879Z,5.38
2022-08-03T21:33:56.691Z,6.25
2022-08-03T21:36:24.917Z,6.28
2022-08-03T21:38:56.357Z,7.97
2022-08-03T21:41:23.868Z,6.93
2022-08-03T21:43:50.340Z,6.35
2022-08-03T21:46:19.001Z,7.13
2022-08-03T21:48:48.059Z,8.65
2022-08-03T21:51:18.384Z,8.70
2022-08-03T21:56:42.410Z,7.05
2022-08-03T21:59:16.903Z,7.90
2022-08-03T22:01:48.800Z,7.78
2022-08-03T22:04:53.407Z,8.38
2022-08-03T22:09:35.286Z,8.48
2022-08-03T22:12:01.812Z,8.50
2022-08-03T22:14:29.018Z,9.57
2022-08-03T22:16:56.288Z,8.60
2022-08-03T22:19:22.865Z,10.63
2022-08-03T22:21:49.965Z,8.07
2022-08-03T22:24:23.991Z,8.77
2022-08-03T22:27:09.674Z,9.77
2022-08-03T22:29:37.716Z,8.95
2022-08-03T22:32:04.342Z,10.30
2022-08-03T22:34:31.117Z,10.63
2022-08-03T22:37:03.047Z,9.52
2022-08-03T22:39:30.086Z,10.75
2022-08-03T22:41:58.917Z,11.40
2022-08-03T22:44:26.842Z,10.82
2022-08-03T22:46:53.576Z,12.18
2022-08-03T22:49:20.721Z,10.80
2022-08-03T22:51:47.638Z,11.98
2022-08-03T22:54:14.985Z,11.32
2022-08-03T22:56:41.873Z,11.63
2022-08-03T22:59:40.598Z,12.63
2022-08-03T23:01:59.178Z,12.38
2022-08-03T23:04:26.211Z,12.52
2022-08-03T23:06:56.492Z,15.70
2022-08-03T23:09:24.249Z,16.15
2022-08-03T23:11:53.476Z,15.30
2022-08-03T23:14:22.384Z,17.38
2022-08-03T23:16:53.586Z,16.35
2022-08-03T23:19:25.327Z,17.10
2022-08-03T23:22:02.469Z,17.42
2022-08-03T23:24:30.500Z,15.85
2022-08-03T23:26:58.186Z,15.32
2022-08-03T23:29:26.274Z,15.27
2022-08-03T23:31:53.693Z,17.63
2022-08-03T23:34:41.596Z,16.38
2022-08-03T23:37:12.869Z,17.48
2022-08-03T23:39:40.388Z,17.02
2022-08-03T23:42:07.059Z,17.52
2022-08-03T23:44:34.575Z,17.20
2022-08-03T23:47:01.085Z,19.30
2022-08-03T23:49:27.624Z,18.50
2022-08-03T23:52:10.452Z,17.65
2022-08-03T23:54:52.477Z,17.33
2022-08-03T23:57:37.516Z,17.85
